sensor_id;sensor_type;location;lat;lon;timestamp;P1;durP1;ratioP1;P2;durP2;ratioP2
19671;SDS011;9983;51.114;13.788;2022-12-18T00:00:48;16.37;;;7.93;;
19671;SDS011;9983;51.114;13.788;2022-12-18T00:05:49;16.30;;;8.07;;
19671;SDS011;9983;51.114;13.788;2022-12-18T00:10:50;16.90;;;8.43;;
19671;SDS011;9983;51.114;13.788;2022-12-18T00:15:50;16.77;;;8.27;;
19671;SDS011;9983;51.114;13.788;2022-12-18T00:20:50;20.33;;;8.60;;
19671;SDS011;9983;51.114;13.788;2022-12-18T00:25:51;23.40;;;9.53;;
19671;SDS011;9983;51.114;13.788;2022-12-18T00:30:58;16.93;;;8.47;;
19671;SDS011;9983;51.114;13.788;2022-12-18T00:36:10;18.93;;;7.87;;
19671;SDS011;9983;51.114;13.788;2022-12-18T00:41:12;7.83;;;5.47;;
19671;SDS011;9983;51.114;13.788;2022-12-18T00:46:34;17.20;;;7.17;;
19671;SDS011;9983;51.114;13.788;2022-12-18T00:51:34;18.10;;;9.10;;
19671;SDS011;9983;51.114;13.788;2022-12-18T00:56:35;17.50;;;8.43;;
19671;SDS011;9983;51.114;13.788;2022-12-18T01:01:37;15.53;;;6.90;;
19671;SDS011;9983;51.114;13.788;2022-12-18T01:06:37;14.07;;;6.68;;
19671;SDS011;9983;51.114;13.788;2022-12-18T01:11:37;22.50;;;7.97;;
19671;SDS011;9983;51.114;13.788;2022-12-18T01:16:37;14.37;;;7.00;;
19671;SDS011;9983;51.114;13.788;2022-12-18T01:21:38;14.30;;;7.03;;
19671;SDS011;9983;51.114;13.788;2022-12-18T01:26:38;18.33;;;7.63;;
19671;SDS011;9983;51.114;13.788;2022-12-18T01:31:38;17.30;;;7.97;;
19671;SDS011;9983;51.114;13.788;2022-12-18T01:36:39;19.57;;;7.97;;
19671;SDS011;9983;51.114;13.788;2022-12-18T01:41:39;16.20;;;7.03;;
19671;SDS011;9983;51.114;13.788;2022-12-18T01:46:59;18.03;;;7.67;;
19671;SDS011;9983;51.114;13.788;2022-12-18T01:51:59;16.53;;;7.63;;
19671;SDS011;9983;51.114;13.788;2022-12-18T01:57:00;15.03;;;7.23;;
19671;SDS011;9983;51.114;13.788;2022-12-18T02:02:01;15.60;;;7.00;;
19671;SDS011;9983;51.114;13.788;2022-12-18T02:12:41;14.43;;;6.83;;
19671;SDS011;9983;51.114;13.788;2022-12-18T02:17:48;16.17;;;5.97;;
19671;SDS011;9983;51.114;13.788;2022-12-18T02:23:09;13.60;;;6.87;;
19671;SDS011;9983;51.114;13.788;2022-12-18T02:28:22;15.70;;;8.23;;
19671;SDS011;9983;51.114;13.788;2022-12-18T02:33:27;18.93;;;8.73;;
19671;SDS011;9983;51.114;13.788;2022-12-18T02:38:29;13.40;;;7.40;;
19671;SDS011;9983;51.114;13.788;2022-12-18T02:43:31;17.03;;;8.30;;
19671;SDS011;9983;51.114;13.788;2022-12-18T02:48:33;12.03;;;5.63;;
19671;SDS011;9983;51.114;13.788;2022-12-18T02:53:45;18.90;;;8.73;;
19671;SDS011;9983;51.114;13.788;2022-12-18T02:59:00;14.70;;;7.27;;
19671;SDS011;9983;51.114;13.788;2022-12-18T03:04:06;22.43;;;8.90;;
19671;SDS011;9983;51.114;13.788;2022-12-18T03:09:14;19.47;;;9.10;;
19671;SDS011;9983;51.114;13.788;2022-12-18T03:14:21;21.30;;;9.70;;
19671;SDS011;9983;51.114;13.788;2022-12-18T03:19:24;21.37;;;9.40;;
19671;SDS011;9983;51.114;13.788;2022-12-18T03:24:27;24.73;;;10.37;;
19671;SDS011;9983;51.114;13.788;2022-12-18T03:29:33;19.70;;;9.87;;
19671;SDS011;9983;51.114;13.788;2022-12-18T03:34:36;22.93;;;9.77;;
19671;SDS011;9983;51.114;13.788;2022-12-18T03:39:39;19.40;;;8.73;;
19671;SDS011;9983;51.114;13.788;2022-12-18T03:50:11;19.83;;;8.40;;
19671;SDS011;9983;51.114;13.788;2022-12-18T03:55:16;17.87;;;8.17;;
19671;SDS011;9983;51.114;13.788;2022-12-18T04:00:19;17.50;;;7.27;;
19671;SDS011;9983;51.114;13.788;2022-12-18T04:05:20;18.03;;;7.97;;
19671;SDS011;9983;51.114;13.788;2022-12-18T04:10:24;16.20;;;7.87;;
19671;SDS011;9983;51.114;13.788;2022-12-18T04:15:24;19.20;;;7.77;;
19671;SDS011;9983;51.114;13.788;2022-12-18T04:20:24;17.27;;;8.40;;
19671;SDS011;9983;51.114;13.788;2022-12-18T04:25:25;12.60;;;6.40;;
19671;SDS011;9983;51.114;13.788;2022-12-18T04:30:25;24.27;;;9.60;;
19671;SDS011;9983;51.114;13.788;2022-12-18T04:35:25;19.00;;;8.10;;
19671;SDS011;9983;51.114;13.788;2022-12-18T04:40:26;26.65;;;9.63;;
19671;SDS011;9983;51.114;13.788;2022-12-18T04:45:26;18.40;;;8.57;;
19671;SDS011;9983;51.114;13.788;2022-12-18T04:50:26;21.90;;;8.03;;
19671;SDS011;9983;51.114;13.788;2022-12-18T04:55:27;21.63;;;8.97;;
19671;SDS011;9983;51.114;13.788;2022-12-18T05:00:27;16.63;;;8.57;;
19671;SDS011;9983;51.114;13.788;2022-12-18T05:05:27;15.87;;;7.70;;
19671;SDS011;9983;51.114;13.788;2022-12-18T05:10:28;17.97;;;7.87;;
19671;SDS011;9983;51.114;13.788;2022-12-18T05:15:29;19.93;;;8.47;;
19671;SDS011;9983;51.114;13.788;2022-12-18T05:20:31;19.00;;;8.33;;
19671;SDS011;9983;51.114;13.788;2022-12-18T05:25:31;16.93;;;8.03;;
19671;SDS011;9983;51.114;13.788;2022-12-18T05:30:32;19.07;;;8.03;;
19671;SDS011;9983;51.114;13.788;2022-12-18T05:35:32;13.80;;;6.60;;
19671;SDS011;9983;51.114;13.788;2022-12-18T05:40:32;14.27;;;6.37;;
19671;SDS011;9983;51.114;13.788;2022-12-18T05:45:32;15.70;;;6.60;;
19671;SDS011;9983;51.114;13.788;2022-12-18T05:50:37;22.70;;;7.17;;
19671;SDS011;9983;51.114;13.788;2022-12-18T05:55:39;15.30;;;7.73;;
19671;SDS011;9983;51.114;13.788;2022-12-18T06:00:41;23.53;;;7.37;;
19671;SDS011;9983;51.114;13.788;2022-12-18T06:05:44;17.67;;;7.60;;
19671;SDS011;9983;51.114;13.788;2022-12-18T06:10:49;17.20;;;7.63;;
19671;SDS011;9983;51.114;13.788;2022-12-18T06:15:51;15.30;;;6.80;;
19671;SDS011;9983;51.114;13.788;2022-12-18T06:20:58;19.43;;;8.57;;
19671;SDS011;9983;51.114;13.788;2022-12-18T06:26:02;11.07;;;4.97;;
19671;SDS011;9983;51.114;13.788;2022-12-18T06:31:04;17.57;;;8.10;;
19671;SDS011;9983;51.114;13.788;2022-12-18T06:36:06;9.17;;;6.70;;
19671;SDS011;9983;51.114;13.788;2022-12-18T06:41:18;17.73;;;7.10;;
19671;SDS011;9983;51.114;13.788;2022-12-18T06:46:20;16.57;;;7.83;;
19671;SDS011;9983;51.114;13.788;2022-12-18T06:51:21;11.37;;;4.93;;
19671;SDS011;9983;51.114;13.788;2022-12-18T06:56:22;14.83;;;8.17;;
19671;SDS011;9983;51.114;13.788;2022-12-18T07:01:23;17.67;;;7.23;;
19671;SDS011;9983;51.114;13.788;2022-12-18T07:06:24;15.90;;;7.57;;
19671;SDS011;9983;51.114;13.788;2022-12-18T07:11:25;18.30;;;8.03;;
19671;SDS011;9983;51.114;13.788;2022-12-18T07:16:26;14.03;;;9.13;;
19671;SDS011;9983;51.114;13.788;2022-12-18T07:21:28;16.70;;;7.40;;
19671;SDS011;9983;51.114;13.788;2022-12-18T07:26:28;19.67;;;9.20;;
19671;SDS011;9983;51.114;13.788;2022-12-18T07:31:29;16.53;;;7.70;;
19671;SDS011;9983;51.114;13.788;2022-12-18T07:36:29;14.47;;;6.93;;
19671;SDS011;9983;51.114;13.788;2022-12-18T07:41:29;18.90;;;8.03;;
19671;SDS011;9983;51.114;13.788;2022-12-18T07:46:29;19.50;;;7.93;;
19671;SDS011;9983;51.114;13.788;2022-12-18T07:51:30;14.87;;;7.60;;
19671;SDS011;9983;51.114;13.788;2022-12-18T07:56:30;15.13;;;6.60;;
19671;SDS011;9983;51.114;13.788;2022-12-18T08:01:30;17.30;;;7.27;;
19671;SDS011;9983;51.114;13.788;2022-12-18T08:06:31;20.47;;;7.73;;
19671;SDS011;9983;51.114;13.788;2022-12-18T08:11:31;15.47;;;7.43;;
19671;SDS011;9983;51.114;13.788;2022-12-18T08:16:31;17.73;;;7.57;;
19671;SDS011;9983;51.114;13.788;2022-12-18T08:21:32;17.53;;;8.17;;
19671;SDS011;9983;51.114;13.788;2022-12-18T08:26:32;17.40;;;7.30;;
19671;SDS011;9983;51.114;13.788;2022-12-18T08:31:32;15.27;;;8.23;;
19671;SDS011;9983;51.114;13.788;2022-12-18T08:36:33;18.63;;;8.25;;
19671;SDS011;9983;51.114;13.788;2022-12-18T08:41:33;19.50;;;8.83;;
19671;SDS011;9983;51.114;13.788;2022-12-18T08:46:34;16.43;;;8.13;;
19671;SDS011;9983;51.114;13.788;2022-12-18T08:51:37;14.10;;;8.37;;
19671;SDS011;9983;51.114;13.788;2022-12-18T08:56:38;18.87;;;8.43;;
19671;SDS011;9983;51.114;13.788;2022-12-18T09:01:38;16.13;;;8.77;;
19671;SDS011;9983;51.114;13.788;2022-12-18T09:06:39;15.50;;;7.90;;
19671;SDS011;9983;51.114;13.788;2022-12-18T09:11:39;23.80;;;10.47;;
19671;SDS011;9983;51.114;13.788;2022-12-18T09:16:40;20.87;;;9.67;;
19671;SDS011;9983;51.114;13.788;2022-12-18T09:21:40;20.83;;;9.17;;
19671;SDS011;9983;51.114;13.788;2022-12-18T09:26:40;20.73;;;10.03;;
19671;SDS011;9983;51.114;13.788;2022-12-18T09:31:40;18.33;;;10.07;;
19671;SDS011;9983;51.114;13.788;2022-12-18T09:36:41;26.13;;;10.67;;
19671;SDS011;9983;51.114;13.788;2022-12-18T09:41:50;21.70;;;10.70;;
19671;SDS011;9983;51.114;13.788;2022-12-18T09:47:10;23.50;;;11.17;;
19671;SDS011;9983;51.114;13.788;2022-12-18T09:52:20;19.30;;;10.53;;
19671;SDS011;9983;51.114;13.788;2022-12-18T09:57:25;21.67;;;10.67;;
19671;SDS011;9983;51.114;13.788;2022-12-18T10:02:26;19.50;;;10.60;;
19671;SDS011;9983;51.114;13.788;2022-12-18T10:12:44;21.33;;;10.52;;
19671;SDS011;9983;51.114;13.788;2022-12-18T10:18:01;19.10;;;9.93;;
19671;SDS011;9983;51.114;13.788;2022-12-18T10:23:32;18.45;;;10.60;;
19671;SDS011;9983;51.114;13.788;2022-12-18T10:28:41;21.85;;;11.38;;
19671;SDS011;9983;51.114;13.788;2022-12-18T10:33:41;21.02;;;11.10;;
19671;SDS011;9983;51.114;13.788;2022-12-18T10:38:42;22.02;;;11.02;;
19671;SDS011;9983;51.114;13.788;2022-12-18T10:43:42;21.38;;;10.88;;
19671;SDS011;9983;51.114;13.788;2022-12-18T10:48:55;15.95;;;10.05;;
19671;SDS011;9983;51.114;13.788;2022-12-18T10:53:59;19.80;;;10.55;;
19671;SDS011;9983;51.114;13.788;2022-12-18T10:59:17;18.45;;;10.25;;
19671;SDS011;9983;51.114;13.788;2022-12-18T11:04:19;20.70;;;11.68;;
19671;SDS011;9983;51.114;13.788;2022-12-18T11:09:23;19.60;;;11.07;;
19671;SDS011;9983;51.114;13.788;2022-12-18T11:14:49;17.58;;;10.40;;
19671;SDS011;9983;51.114;13.788;2022-12-18T11:19:52;19.33;;;11.30;;
19671;SDS011;9983;51.114;13.788;2022-12-18T11:36:02;22.45;;;11.95;;
19671;SDS011;9983;51.114;13.788;2022-12-18T11:46:59;21.30;;;11.75;;
19671;SDS011;9983;51.114;13.788;2022-12-18T11:52:04;21.13;;;11.93;;
19671;SDS011;9983;51.114;13.788;2022-12-18T12:08:06;20.85;;;10.98;;
19671;SDS011;9983;51.114;13.788;2022-12-18T12:13:28;22.17;;;12.13;;
19671;SDS011;9983;51.114;13.788;2022-12-18T12:29:01;19.90;;;10.45;;
19671;SDS011;9983;51.114;13.788;2022-12-18T12:34:15;20.40;;;10.75;;
19671;SDS011;9983;51.114;13.788;2022-12-18T12:39:28;17.77;;;10.27;;
19671;SDS011;9983;51.114;13.788;2022-12-18T12:44:38;20.08;;;10.10;;
19671;SDS011;9983;51.114;13.788;2022-12-18T12:49:42;22.48;;;10.88;;
19671;SDS011;9983;51.114;13.788;2022-12-18T12:54:47;16.90;;;9.38;;
19671;SDS011;9983;51.114;13.788;2022-12-18T12:59:56;22.17;;;9.98;;
19671;SDS011;9983;51.114;13.788;2022-12-18T13:10:30;15.38;;;9.10;;
19671;SDS011;9983;51.114;13.788;2022-12-18T13:20:48;18.70;;;9.88;;
19671;SDS011;9983;51.114;13.788;2022-12-18T13:36:30;17.20;;;9.27;;
19671;SDS011;9983;51.114;13.788;2022-12-18T13:41:32;18.40;;;9.50;;
19671;SDS011;9983;51.114;13.788;2022-12-18T13:51:44;17.50;;;9.80;;
19671;SDS011;9983;51.114;13.788;2022-12-18T13:56:48;16.53;;;9.17;;
19671;SDS011;9983;51.114;13.788;2022-12-18T14:01:56;16.43;;;8.87;;
19671;SDS011;9983;51.114;13.788;2022-12-18T14:07:04;17.30;;;9.03;;
19671;SDS011;9983;51.114;13.788;2022-12-18T14:12:16;16.17;;;8.93;;
19671;SDS011;9983;51.114;13.788;2022-12-18T14:17:58;14.03;;;8.50;;
19671;SDS011;9983;51.114;13.788;2022-12-18T14:23:27;17.40;;;8.27;;
19671;SDS011;9983;51.114;13.788;2022-12-18T14:28:30;13.90;;;7.13;;
19671;SDS011;9983;51.114;13.788;2022-12-18T14:33:31;15.80;;;7.77;;
19671;SDS011;9983;51.114;13.788;2022-12-18T14:38:35;15.20;;;7.87;;
19671;SDS011;9983;51.114;13.788;2022-12-18T14:43:38;16.57;;;8.50;;
19671;SDS011;9983;51.114;13.788;2022-12-18T14:48:43;16.17;;;8.33;;
19671;SDS011;9983;51.114;13.788;2022-12-18T14:53:48;14.00;;;7.87;;
19671;SDS011;9983;51.114;13.788;2022-12-18T15:04:04;15.13;;;7.37;;
19671;SDS011;9983;51.114;13.788;2022-12-18T15:09:25;15.53;;;7.97;;
19671;SDS011;9983;51.114;13.788;2022-12-18T15:19:39;19.37;;;8.83;;
19671;SDS011;9983;51.114;13.788;2022-12-18T15:24:41;16.93;;;7.83;;
19671;SDS011;9983;51.114;13.788;2022-12-18T15:29:41;17.30;;;8.37;;
19671;SDS011;9983;51.114;13.788;2022-12-18T15:34:42;15.07;;;7.77;;
19671;SDS011;9983;51.114;13.788;2022-12-18T15:39:42;13.50;;;7.37;;
19671;SDS011;9983;51.114;13.788;2022-12-18T15:44:43;17.63;;;8.37;;
19671;SDS011;9983;51.114;13.788;2022-12-18T15:49:43;13.07;;;7.47;;
19671;SDS011;9983;51.114;13.788;2022-12-18T15:54:43;16.97;;;7.83;;
19671;SDS011;9983;51.114;13.788;2022-12-18T16:00:02;20.67;;;8.13;;
19671;SDS011;9983;51.114;13.788;2022-12-18T16:05:03;20.17;;;8.40;;
19671;SDS011;9983;51.114;13.788;2022-12-18T16:10:08;14.10;;;7.30;;
19671;SDS011;9983;51.114;13.788;2022-12-18T16:15:10;18.00;;;8.00;;
19671;SDS011;9983;51.114;13.788;2022-12-18T16:20:17;16.63;;;8.37;;
19671;SDS011;9983;51.114;13.788;2022-12-18T16:25:22;17.50;;;8.57;;
19671;SDS011;9983;51.114;13.788;2022-12-18T16:30:28;18.47;;;8.03;;
19671;SDS011;9983;51.114;13.788;2022-12-18T16:35:30;22.20;;;8.67;;
19671;SDS011;9983;51.114;13.788;2022-12-18T16:40:31;17.77;;;8.73;;
19671;SDS011;9983;51.114;13.788;2022-12-18T16:45:32;19.70;;;9.00;;
19671;SDS011;9983;51.114;13.788;2022-12-18T16:50:32;14.00;;;7.23;;
19671;SDS011;9983;51.114;13.788;2022-12-18T16:55:33;20.27;;;9.13;;
19671;SDS011;9983;51.114;13.788;2022-12-18T17:00:33;20.07;;;8.40;;
19671;SDS011;9983;51.114;13.788;2022-12-18T17:05:33;17.33;;;8.17;;
19671;SDS011;9983;51.114;13.788;2022-12-18T17:10:34;21.27;;;9.37;;
19671;SDS011;9983;51.114;13.788;2022-12-18T17:15:35;16.47;;;8.20;;
19671;SDS011;9983;51.114;13.788;2022-12-18T17:20:36;17.67;;;8.23;;
19671;SDS011;9983;51.114;13.788;2022-12-18T17:25:38;17.07;;;7.90;;
19671;SDS011;9983;51.114;13.788;2022-12-18T17:30:39;17.93;;;8.43;;
19671;SDS011;9983;51.114;13.788;2022-12-18T17:35:40;16.13;;;8.63;;
19671;SDS011;9983;51.114;13.788;2022-12-18T17:40:41;19.58;;;8.45;;
19671;SDS011;9983;51.114;13.788;2022-12-18T17:45:41;17.47;;;9.17;;
19671;SDS011;9983;51.114;13.788;2022-12-18T17:50:41;18.07;;;8.23;;
19671;SDS011;9983;51.114;13.788;2022-12-18T17:55:41;19.00;;;8.33;;
19671;SDS011;9983;51.114;13.788;2022-12-18T18:00:42;16.57;;;8.43;;
19671;SDS011;9983;51.114;13.788;2022-12-18T18:05:42;18.27;;;8.83;;
19671;SDS011;9983;51.114;13.788;2022-12-18T18:10:42;18.43;;;8.53;;
19671;SDS011;9983;51.114;13.788;2022-12-18T18:15:43;18.50;;;9.20;;
19671;SDS011;9983;51.114;13.788;2022-12-18T18:20:43;21.23;;;8.73;;
19671;SDS011;9983;51.114;13.788;2022-12-18T18:25:43;19.53;;;8.63;;
19671;SDS011;9983;51.114;13.788;2022-12-18T18:30:43;19.60;;;8.43;;
19671;SDS011;9983;51.114;13.788;2022-12-18T18:35:44;17.27;;;8.67;;
19671;SDS011;9983;51.114;13.788;2022-12-18T18:40:45;16.27;;;8.00;;
19671;SDS011;9983;51.114;13.788;2022-12-18T18:45:45;21.33;;;8.67;;
19671;SDS011;9983;51.114;13.788;2022-12-18T18:50:54;18.57;;;8.57;;
19671;SDS011;9983;51.114;13.788;2022-12-18T18:55:58;15.23;;;7.57;;
19671;SDS011;9983;51.114;13.788;2022-12-18T19:01:10;16.60;;;7.80;;
19671;SDS011;9983;51.114;13.788;2022-12-18T19:06:13;17.27;;;8.50;;
19671;SDS011;9983;51.114;13.788;2022-12-18T19:11:24;12.40;;;6.63;;
19671;SDS011;9983;51.114;13.788;2022-12-18T19:16:45;18.27;;;8.60;;
19671;SDS011;9983;51.114;13.788;2022-12-18T19:21:45;17.67;;;8.70;;
19671;SDS011;9983;51.114;13.788;2022-12-18T19:26:46;19.03;;;9.00;;
19671;SDS011;9983;51.114;13.788;2022-12-18T19:31:46;17.23;;;8.77;;
19671;SDS011;9983;51.114;13.788;2022-12-18T19:36:46;18.77;;;9.27;;
19671;SDS011;9983;51.114;13.788;2022-12-18T19:41:47;16.97;;;8.37;;
19671;SDS011;9983;51.114;13.788;2022-12-18T19:46:50;24.53;;;10.17;;
19671;SDS011;9983;51.114;13.788;2022-12-18T19:51:50;20.87;;;8.93;;
19671;SDS011;9983;51.114;13.788;2022-12-18T19:56:51;16.83;;;9.17;;
19671;SDS011;9983;51.114;13.788;2022-12-18T20:01:52;16.30;;;8.37;;
19671;SDS011;9983;51.114;13.788;2022-12-18T20:06:53;16.57;;;7.87;;
19671;SDS011;9983;51.114;13.788;2022-12-18T20:11:55;24.00;;;9.43;;
19671;SDS011;9983;51.114;13.788;2022-12-18T20:16:55;18.63;;;8.80;;
19671;SDS011;9983;51.114;13.788;2022-12-18T20:21:56;14.27;;;8.07;;
19671;SDS011;9983;51.114;13.788;2022-12-18T20:26:56;19.30;;;8.37;;
19671;SDS011;9983;51.114;13.788;2022-12-18T20:31:57;19.67;;;8.60;;
19671;SDS011;9983;51.114;13.788;2022-12-18T20:36:58;17.63;;;8.77;;
19671;SDS011;9983;51.114;13.788;2022-12-18T20:41:59;13.33;;;6.93;;
19671;SDS011;9983;51.114;13.788;2022-12-18T20:46:59;19.53;;;8.80;;
19671;SDS011;9983;51.114;13.788;2022-12-18T20:52:01;17.50;;;8.37;;
19671;SDS011;9983;51.114;13.788;2022-12-18T20:57:02;18.27;;;8.23;;
19671;SDS011;9983;51.114;13.788;2022-12-18T21:02:02;13.80;;;7.80;;
19671;SDS011;9983;51.114;13.788;2022-12-18T21:07:02;18.77;;;8.13;;
19671;SDS011;9983;51.114;13.788;2022-12-18T21:12:03;19.97;;;8.10;;
19671;SDS011;9983;51.114;13.788;2022-12-18T21:17:22;13.27;;;7.60;;
19671;SDS011;9983;51.114;13.788;2022-12-18T21:22:22;15.77;;;8.47;;
19671;SDS011;9983;51.114;13.788;2022-12-18T21:27:23;19.43;;;8.27;;
19671;SDS011;9983;51.114;13.788;2022-12-18T21:32:23;19.20;;;8.87;;
19671;SDS011;9983;51.114;13.788;2022-12-18T21:37:24;15.63;;;8.43;;
19671;SDS011;9983;51.114;13.788;2022-12-18T21:42:24;19.43;;;9.33;;
19671;SDS011;9983;51.114;13.788;2022-12-18T21:47:50;22.73;;;10.50;;
19671;SDS011;9983;51.114;13.788;2022-12-18T21:52:50;17.67;;;8.23;;
19671;SDS011;9983;51.114;13.788;2022-12-18T21:57:52;20.13;;;9.77;;
19671;SDS011;9983;51.114;13.788;2022-12-18T22:02:52;22.37;;;9.47;;
19671;SDS011;9983;51.114;13.788;2022-12-18T22:07:53;20.60;;;9.83;;
19671;SDS011;9983;51.114;13.788;2022-12-18T22:12:53;16.93;;;8.63;;
19671;SDS011;9983;51.114;13.788;2022-12-18T22:17:53;18.63;;;8.77;;
19671;SDS011;9983;51.114;13.788;2022-12-18T22:22:53;23.87;;;11.53;;
19671;SDS011;9983;51.114;13.788;2022-12-18T22:27:53;17.83;;;9.93;;
19671;SDS011;9983;51.114;13.788;2022-12-18T22:33:12;24.93;;;13.13;;
19671;SDS011;9983;51.114;13.788;2022-12-18T22:38:12;18.20;;;9.50;;
19671;SDS011;9983;51.114;13.788;2022-12-18T22:43:13;23.83;;;11.57;;
19671;SDS011;9983;51.114;13.788;2022-12-18T22:48:13;19.80;;;10.97;;
19671;SDS011;9983;51.114;13.788;2022-12-18T22:53:13;21.83;;;10.90;;
19671;SDS011;9983;51.114;13.788;2022-12-18T22:58:13;18.77;;;9.80;;
19671;SDS011;9983;51.114;13.788;2022-12-18T23:03:14;18.30;;;10.90;;
19671;SDS011;9983;51.114;13.788;2022-12-18T23:08:14;20.83;;;12.27;;
19671;SDS011;9983;51.114;13.788;2022-12-18T23:13:14;19.43;;;10.43;;
19671;SDS011;9983;51.114;13.788;2022-12-18T23:18:14;20.87;;;12.13;;
19671;SDS011;9983;51.114;13.788;2022-12-18T23:23:15;24.03;;;10.73;;
19671;SDS011;9983;51.114;13.788;2022-12-18T23:28:15;21.07;;;11.37;;
19671;SDS011;9983;51.114;13.788;2022-12-18T23:33:15;19.10;;;10.40;;
19671;SDS011;9983;51.114;13.788;2022-12-18T23:38:16;24.20;;;10.97;;
19671;SDS011;9983;51.114;13.788;2022-12-18T23:43:16;21.63;;;11.27;;
19671;SDS011;9983;51.114;13.788;2022-12-18T23:48:17;20.13;;;10.93;;
19671;SDS011;9983;51.114;13.788;2022-12-18T23:53:17;15.30;;;6.40;;
19671;SDS011;9983;51.114;13.788;2022-12-18T23:58:18;23.87;;;11.87;;
